Knight, Indiana
Current Conditions -  °F | °C
As of 2:54 PM on Monday 22 Dec 2014 (Local Time) from KEVV Reporting Station
Light Rain Light Rain  
Wind Chill: 51°   Ceiling: 1800
Heat Index: 51°   Visibility: 7mi
Dew Point: 45°   Wind: 8mph
Humidity: 80%   Direction: 140°SE
Pressure: 29.71"   Gusts: NA
Location:  38.0153°N, 87.5343°W
Report Text: KEVV 222054Z 14007KT 7SM -RA BKN018 OVC023 11/07 A2971 RMK AO2 SLP060 P0003 60004 T01060072 56031
Loading
Personal Weather Stations






























Interactive Weather Map New forecast layout! Learn more

10-Day Weather Forecast

Advertisements
Track Severe Weather on mobile